KCOD/COD METAR and TAF weather

Enter ICAO airport designator
Station Type Date Time Source
KCOD METAR 2021/09/28 15:56 UTC NOAA

KCOD 281556Z AUTO 20007KT 9SM CLR 21/M03 A2972 RMK AO2 SLP017 T02111028


Station Type Date Time Source
KCOD Decoded METAR 2021/09/28 15:56 UTC NOAA

Cody, WY, United States (KCOD) 44-31N 109-01W 1553M
Sep 28, 2021 - 11:56 AM EDT / 2021.09.28 1556 UTC
Wind: from the SSW (200 degrees) at 8 MPH (7 KT):0
Visibility: 9 mile(s):0
Sky conditions: clear
Temperature: 70.0 F (21.1 C)
Dew Point: 27.0 F (-2.8 C)
Relative Humidity: 19%
Pressure (altimeter): 29.72 in. Hg (1006 hPa)
ob: KCOD 281556Z AUTO 20007KT 9SM CLR 21/M03 A2972 RMK AO2 SLP017 T02111028
cycle: 16

Station Type Date Time Source
KCOD TAF 2021/09/28 12:24 UTC NOAA

TAF KCOD 281122Z 2812/2912 21007KT P6SM SKC
FM282100 29013G25KT P6SM OVC090
FM290200 35020G30KT P6SM OVC100
FM290600 33012G20KT P6SM BKN100

Example: see airport list